createdAt,value
2019-04-07T00:02:35.115Z,51
2019-04-07T00:07:35.099Z,48
2019-04-07T00:12:35.035Z,51
2019-04-07T00:17:35.099Z,49
2019-04-07T00:22:35.248Z,46
2019-04-07T00:27:35.221Z,48
2019-04-07T00:32:35.160Z,51
2019-04-07T00:37:35.087Z,50
2019-04-07T00:42:34.988Z,53
2019-04-07T00:47:35.013Z,52
2019-04-07T00:52:35.067Z,55
2019-04-07T00:57:35.490Z,57
2019-04-07T01:02:35.026Z,57
2019-04-07T01:07:35.556Z,56
2019-04-07T01:12:35.009Z,56
2019-04-07T01:17:34.979Z,59
2019-04-07T01:22:34.982Z,55
2019-04-07T01:27:44.542Z,56
2019-04-07T01:32:44.672Z,58
2019-04-07T01:37:44.644Z,57
2019-04-07T01:42:44.507Z,57
2019-04-07T01:47:44.451Z,57
2019-04-07T01:52:44.477Z,58
2019-04-07T01:57:44.543Z,58
2019-04-07T02:02:44.558Z,62
2019-04-07T02:07:44.649Z,59
2019-04-07T02:12:44.471Z,60
2019-04-07T02:17:45.622Z,62
2019-04-07T02:22:44.520Z,62
2019-04-07T02:27:44.773Z,62
2019-04-07T02:32:44.462Z,64
2019-04-07T02:37:44.421Z,62
2019-04-07T02:42:44.421Z,64
2019-04-07T02:47:44.757Z,65
2019-04-07T02:52:45.377Z,66
2019-04-07T02:57:44.656Z,65
2019-04-07T03:02:45.760Z,65
2019-04-07T03:07:44.683Z,67
2019-04-07T03:12:44.370Z,66
2019-04-07T03:17:44.407Z,66
2019-04-07T03:22:44.449Z,67
2019-04-07T03:27:44.620Z,66
2019-04-07T03:32:52.906Z,65
2019-04-07T03:37:49.037Z,66
2019-04-07T03:42:44.429Z,70
2019-04-07T03:47:44.334Z,70
2019-04-07T03:52:45.178Z,69
2019-04-07T03:57:44.565Z,67
2019-04-07T04:02:44.592Z,68
2019-04-07T04:07:44.419Z,67
2019-04-07T04:12:44.315Z,68
2019-04-07T04:17:44.337Z,66
2019-04-07T04:22:44.520Z,67
2019-04-07T04:27:44.391Z,70
2019-04-07T04:32:44.354Z,69
2019-04-07T04:37:54.908Z,70
2019-04-07T04:42:44.512Z,73
2019-04-07T04:47:46.421Z,70
2019-04-07T04:52:46.844Z,72
2019-04-07T04:57:44.523Z,69
2019-04-07T05:02:44.556Z,73
2019-04-07T05:08:03.910Z,70
2019-04-07T05:12:44.668Z,71
2019-04-07T05:49:03.709Z,70
2019-04-07T05:54:03.730Z,68
2019-04-07T05:59:03.715Z,69
2019-04-07T06:04:03.827Z,70
2019-04-07T06:09:04.088Z,65
2019-04-07T06:14:04.284Z,72
2019-04-07T06:19:08.994Z,66
2019-04-07T06:24:04.851Z,63
2019-04-07T06:29:03.929Z,65
2019-04-07T06:34:04.325Z,66
2019-04-07T06:39:03.916Z,65
2019-04-07T06:44:18.726Z,65
2019-04-07T06:49:04.364Z,62
2019-04-07T06:54:04.841Z,63
2019-04-07T06:59:04.684Z,65
2019-04-07T07:04:13.102Z,64
2019-04-07T07:09:03.885Z,62
2019-04-07T07:14:04.345Z,63
2019-04-07T07:19:08.448Z,61
2019-04-07T07:24:03.893Z,62
2019-04-07T07:29:06.944Z,63
2019-04-07T07:34:03.894Z,60
2019-04-07T07:39:13.389Z,62
2019-04-07T07:44:09.726Z,62
2019-04-07T07:49:04.311Z,62
2019-04-07T07:54:05.639Z,60
2019-04-07T07:59:04.709Z,58
2019-04-07T08:04:03.840Z,57
2019-04-07T08:09:15.748Z,59
2019-04-07T08:14:03.930Z,58
2019-04-07T08:19:04.095Z,59
2019-04-07T08:24:04.038Z,58
2019-04-07T08:29:08.775Z,56
2019-04-07T08:34:03.980Z,55
2019-04-07T08:39:03.922Z,57
2019-04-07T08:44:03.802Z,56
2019-04-07T08:49:03.803Z,56
2019-04-07T08:54:05.990Z,55
2019-04-07T08:59:08.557Z,52
2019-04-07T09:04:04.590Z,52
2019-04-07T09:09:08.114Z,53
2019-04-07T09:14:08.719Z,53
2019-04-07T09:19:09.181Z,50
2019-04-07T09:24:03.925Z,48
2019-04-07T09:29:04.133Z,47
2019-04-07T09:34:03.761Z,47
2019-04-07T09:39:04.256Z,49
2019-04-07T09:44:05.312Z,44
2019-04-07T09:49:04.667Z,42
2019-04-07T09:54:04.183Z,46
2019-04-07T09:59:03.876Z,45
2019-04-07T10:04:07.830Z,45
2019-04-07T10:09:04.199Z,50
2019-04-07T10:14:04.522Z,48
2019-04-07T10:19:03.704Z,50
2019-04-07T10:24:03.699Z,49
2019-04-07T10:29:04.701Z,50
2019-04-07T10:34:03.688Z,48
2019-04-07T10:39:04.485Z,47
2019-04-07T10:44:03.991Z,50
2019-04-07T10:49:04.583Z,46
2019-04-07T10:54:03.851Z,44
2019-04-07T10:59:04.484Z,44
2019-04-07T11:04:04.015Z,43
2019-04-07T11:09:03.778Z,39
2019-04-07T11:14:03.645Z,40
2019-04-07T11:19:04.567Z,38
2019-04-07T11:24:04.066Z,41
2019-04-07T11:29:03.626Z,40
2019-04-07T11:34:04.480Z,41
2019-04-07T11:39:03.650Z,34
2019-04-07T11:44:03.620Z,34
2019-04-07T11:49:04.374Z,37
2019-04-07T11:54:03.633Z,40
2019-04-07T11:59:08.534Z,36
2019-04-07T12:04:03.587Z,39
2019-04-07T12:09:05.080Z,38
2019-04-07T12:14:04.944Z,43
2019-04-07T12:19:04.587Z,39
2019-04-07T12:24:03.599Z,45
2019-04-07T12:29:03.591Z,43
2019-04-07T12:34:04.000Z,39
2019-04-07T12:39:04.268Z,38
2019-04-07T12:44:04.609Z,41
2019-04-07T12:49:09.768Z,39
2019-04-07T12:54:10.179Z,42
2019-04-07T12:59:04.518Z,32
2019-04-07T13:04:04.731Z,32
2019-04-07T13:09:04.077Z,28
2019-04-07T13:14:10.004Z,30
2019-04-07T13:19:11.963Z,30
2019-04-07T13:24:14.194Z,29
2019-04-07T13:29:05.302Z,27
2019-04-07T13:34:04.401Z,24
2019-04-07T13:39:04.565Z,27
2019-04-07T13:44:08.607Z,26
2019-04-07T13:49:04.698Z,26
2019-04-07T13:54:03.789Z,23
2019-04-07T13:59:11.220Z,26
2019-04-07T14:04:03.915Z,24
2019-04-07T14:09:04.443Z,26
2019-04-07T14:14:04.670Z,26
2019-04-07T14:19:03.754Z,29
2019-04-07T14:24:04.511Z,27
2019-04-07T14:29:04.216Z,26
2019-04-07T14:34:03.733Z,25
2019-04-07T14:39:04.249Z,30
2019-04-07T14:44:05.305Z,32
2019-04-07T14:49:05.284Z,35
2019-04-07T14:54:04.494Z,29
2019-04-07T14:59:04.178Z,32
2019-04-07T15:04:05.275Z,38
2019-04-07T15:09:08.328Z,35
2019-04-07T15:14:04.319Z,35
2019-04-07T15:19:04.417Z,38
2019-04-07T15:24:08.710Z,39
2019-04-07T15:29:10.829Z,45
2019-04-07T15:34:11.754Z,36
2019-04-07T15:39:03.665Z,35
2019-04-07T15:44:13.074Z,39
2019-04-07T15:49:07.650Z,42
2019-04-07T15:54:03.691Z,38
2019-04-07T15:59:03.784Z,39
2019-04-07T16:04:07.063Z,36
2019-04-07T16:09:22.349Z,38
2019-04-07T16:14:14.547Z,39
2019-04-07T16:19:03.710Z,41
2019-04-07T16:24:03.655Z,44
2019-04-07T16:29:03.636Z,39
2019-04-07T16:34:10.305Z,37
2019-04-07T16:39:04.477Z,41
2019-04-07T16:44:10.552Z,42
2019-04-07T16:49:04.638Z,42
2019-04-07T16:54:10.373Z,41
2019-04-07T16:59:04.350Z,39
2019-04-07T17:04:03.596Z,47
2019-04-07T17:09:04.420Z,48
2019-04-07T17:14:05.541Z,41
2019-04-07T17:19:04.369Z,42
2019-04-07T17:24:04.220Z,44
2019-04-07T17:29:04.484Z,46
2019-04-07T17:34:12.001Z,45
2019-04-07T17:39:09.727Z,49
2019-04-07T17:44:04.787Z,47
2019-04-07T18:12:14.422Z,45
2019-04-07T19:45:47.851Z,43
2019-04-07T19:50:47.861Z,38
2019-04-07T19:55:48.785Z,37
2019-04-07T20:00:56.796Z,45
2019-04-07T20:05:53.445Z,40
2019-04-07T20:10:54.468Z,42
2019-04-07T20:15:47.850Z,39
2019-04-07T20:20:48.674Z,44
2019-04-07T20:25:49.418Z,45
2019-04-07T20:30:53.740Z,48
2019-04-07T20:35:50.967Z,46
2019-04-07T20:40:52.067Z,45
2019-04-07T20:45:51.730Z,37
2019-04-07T20:50:50.992Z,40
2019-04-07T20:56:00.482Z,43
2019-04-07T21:01:10.183Z,36
2019-04-07T21:06:00.208Z,39
2019-04-07T21:11:00.105Z,43
2019-04-07T21:16:00.140Z,39
2019-04-07T21:21:01.057Z,32
2019-04-07T21:26:00.088Z,30
2019-04-07T21:31:00.113Z,35
2019-04-07T21:36:00.101Z,32
2019-04-07T21:41:00.085Z,35
2019-04-07T21:46:00.556Z,33
2019-04-07T21:51:00.312Z,36
2019-04-07T21:56:00.095Z,29
2019-04-07T22:01:07.857Z,30
2019-04-07T22:06:00.728Z,33
2019-04-07T22:11:00.046Z,35
2019-04-07T22:16:04.362Z,34
2019-04-07T22:21:00.155Z,33
2019-04-07T22:26:00.064Z,33
2019-04-07T22:31:00.162Z,33
2019-04-07T22:36:00.046Z,35
2019-04-07T22:41:00.722Z,28
2019-04-07T22:46:21.848Z,29
2019-04-07T22:51:07.187Z,33
2019-04-07T22:56:00.061Z,31
2019-04-07T23:01:00.792Z,35
2019-04-07T23:06:01.159Z,31
2019-04-07T23:11:00.221Z,32
2019-04-07T23:16:16.401Z,31
2019-04-07T23:21:01.206Z,36
2019-04-07T23:26:00.002Z,35
2019-04-07T23:31:00.016Z,32
2019-04-07T23:35:59.976Z,34
2019-04-07T23:40:59.970Z,39
2019-04-07T23:46:00.250Z,42
2019-04-07T23:50:59.963Z,42
2019-04-07T23:55:59.936Z,38
